createdAt,value
2022-09-24T00:00:28.116Z,1008.73
2022-09-24T00:01:28.217Z,1008.71
2022-09-24T00:02:28.166Z,1008.72
2022-09-24T00:03:28.122Z,1008.65
2022-09-24T00:04:28.106Z,1008.66
2022-09-24T00:05:28.107Z,1008.65
2022-09-24T00:06:28.102Z,1008.67
2022-09-24T00:07:28.100Z,1008.69
2022-09-24T00:08:28.101Z,1008.65
2022-09-24T00:09:28.097Z,1008.63
2022-09-24T00:10:28.100Z,1008.61
2022-09-24T00:11:28.094Z,1008.63
2022-09-24T00:12:28.099Z,1008.59
2022-09-24T00:13:28.091Z,1008.63
2022-09-24T00:14:28.094Z,1008.62
2022-09-24T00:15:28.087Z,1008.60
2022-09-24T00:16:28.202Z,1008.61
2022-09-24T00:17:28.091Z,1008.59
2022-09-24T00:18:28.082Z,1008.53
2022-09-24T00:19:28.109Z,1008.52
2022-09-24T00:20:28.082Z,1008.51
2022-09-24T00:21:28.092Z,1008.53
2022-09-24T00:22:28.080Z,1008.53
2022-09-24T00:23:28.075Z,1008.53
2022-09-24T00:24:28.076Z,1008.53
2022-09-24T00:25:28.071Z,1008.53
2022-09-24T00:26:28.069Z,1008.53
2022-09-24T00:27:28.066Z,1008.52
2022-09-24T00:28:28.066Z,1008.50
2022-09-24T00:29:28.064Z,1008.52
2022-09-24T00:30:28.064Z,1008.52
2022-09-24T00:31:28.098Z,1008.56
2022-09-24T00:32:28.060Z,1008.56
2022-09-24T00:33:28.058Z,1008.56
2022-09-24T00:34:28.068Z,1008.56
2022-09-24T00:35:28.077Z,1008.59
2022-09-24T00:36:28.073Z,1008.60
2022-09-24T00:37:28.054Z,1008.57
2022-09-24T00:38:28.051Z,1008.57
2022-09-24T00:39:28.051Z,1008.55
2022-09-24T00:40:28.088Z,1008.60
2022-09-24T00:41:28.047Z,1008.62
2022-09-24T00:42:28.043Z,1008.62
2022-09-24T00:43:28.042Z,1008.63
2022-09-24T00:44:28.051Z,1008.60
2022-09-24T00:45:28.049Z,1008.68
2022-09-24T00:46:28.082Z,1008.68
2022-09-24T00:47:28.033Z,1008.66
2022-09-24T00:48:28.036Z,1008.67
2022-09-24T00:49:28.031Z,1008.69
2022-09-24T00:50:28.029Z,1008.69
2022-09-24T00:51:28.043Z,1008.68
2022-09-24T00:52:28.027Z,1008.69
2022-09-24T00:53:28.022Z,1008.70
2022-09-24T00:54:28.026Z,1008.70
2022-09-24T00:55:28.019Z,1008.73
2022-09-24T00:56:28.022Z,1008.69
2022-09-24T00:57:28.023Z,1008.67
2022-09-24T00:58:28.015Z,1008.63
2022-09-24T00:59:28.014Z,1008.62
2022-09-24T01:00:28.120Z,1008.61
2022-09-24T01:01:28.090Z,1008.60
2022-09-24T01:02:28.093Z,1008.62
2022-09-24T01:03:28.004Z,1008.56
2022-09-24T01:04:28.005Z,1008.61
2022-09-24T01:05:28.005Z,1008.60
2022-09-24T01:06:28.002Z,1008.60
2022-09-24T01:07:28.021Z,1008.60
2022-09-24T01:08:28.004Z,1008.56
2022-09-24T01:09:27.996Z,1008.57
2022-09-24T01:10:27.994Z,1008.53
2022-09-24T01:11:27.990Z,1008.52
2022-09-24T01:12:27.992Z,1008.49
2022-09-24T01:13:27.987Z,1008.54
2022-09-24T01:14:28.042Z,1008.52
2022-09-24T01:15:27.989Z,1008.46
2022-09-24T01:16:28.201Z,1008.44
2022-09-24T01:17:27.981Z,1008.50
2022-09-24T01:18:27.982Z,1008.49
2022-09-24T01:19:27.980Z,1008.48
2022-09-24T01:20:27.987Z,1008.46
2022-09-24T01:21:27.981Z,1008.43
2022-09-24T01:22:27.985Z,1008.43
2022-09-24T01:23:28.157Z,1008.44
2022-09-24T01:24:27.968Z,1008.43
2022-09-24T01:25:27.973Z,1008.41
2022-09-24T01:26:27.974Z,1008.41
2022-09-24T01:27:27.963Z,1008.41
2022-09-24T01:28:27.964Z,1008.40
2022-09-24T01:29:27.964Z,1008.39
2022-09-24T01:30:27.959Z,1008.38
2022-09-24T01:31:28.066Z,1008.36
2022-09-24T01:32:32.337Z,1008.37
2022-09-24T01:33:27.956Z,1008.35
2022-09-24T01:34:27.954Z,1008.33
2022-09-24T01:35:27.951Z,1008.35
2022-09-24T01:36:27.950Z,1008.35
2022-09-24T01:37:27.948Z,1008.38
2022-09-24T01:38:27.947Z,1008.36
2022-09-24T01:39:28.365Z,1008.36
2022-09-24T01:40:28.040Z,1008.35
2022-09-24T01:41:27.942Z,1008.32
2022-09-24T01:42:27.946Z,1008.31
2022-09-24T01:43:27.934Z,1008.25
2022-09-24T01:44:27.940Z,1008.29
2022-09-24T01:45:27.931Z,1008.30
2022-09-24T01:46:28.014Z,1008.28
2022-09-24T01:47:32.189Z,1008.28
2022-09-24T01:48:27.931Z,1008.26
2022-09-24T01:49:27.927Z,1008.28
2022-09-24T01:50:27.923Z,1008.26
2022-09-24T01:51:27.926Z,1008.21
2022-09-24T01:52:27.920Z,1008.22
2022-09-24T01:53:27.918Z,1008.23
2022-09-24T01:54:27.917Z,1008.21
2022-09-24T01:55:27.937Z,1008.22
2022-09-24T01:56:27.917Z,1008.20
2022-09-24T01:57:27.914Z,1008.20
2022-09-24T01:58:27.916Z,1008.18
2022-09-24T01:59:27.912Z,1008.16
2022-09-24T02:00:28.078Z,1008.18
2022-09-24T02:01:27.979Z,1008.16
2022-09-24T02:02:27.997Z,1008.12
2022-09-24T02:03:27.904Z,1008.15
2022-09-24T02:04:27.900Z,1008.16
2022-09-24T02:05:27.899Z,1008.17
2022-09-24T02:06:27.896Z,1008.14
2022-09-24T02:07:27.894Z,1008.13
2022-09-24T02:08:27.893Z,1008.15
2022-09-24T02:09:27.894Z,1008.13
2022-09-24T02:10:27.889Z,1008.14
2022-09-24T02:11:27.932Z,1008.14
2022-09-24T02:12:27.891Z,1008.12
2022-09-24T02:13:27.894Z,1008.14
2022-09-24T02:14:27.883Z,1008.13
2022-09-24T02:15:32.259Z,1008.14
2022-09-24T02:16:27.962Z,1008.16
2022-09-24T02:17:27.884Z,1008.18
2022-09-24T02:18:27.878Z,1008.18
2022-09-24T02:19:27.883Z,1008.17
2022-09-24T02:20:27.873Z,1008.19
2022-09-24T02:21:27.874Z,1008.18
2022-09-24T02:22:27.871Z,1008.18
2022-09-24T02:23:27.869Z,1008.20
2022-09-24T02:24:27.867Z,1008.16
2022-09-24T02:25:27.865Z,1008.16
2022-09-24T02:26:27.875Z,1008.14
2022-09-24T02:27:27.879Z,1008.10
2022-09-24T02:28:27.860Z,1008.09
2022-09-24T02:29:27.858Z,1008.12
2022-09-24T02:30:27.856Z,1008.06
2022-09-24T02:31:27.934Z,1008.08
2022-09-24T02:32:27.857Z,1008.04
2022-09-24T02:33:27.857Z,1008.03
2022-09-24T02:34:27.851Z,1008.06
2022-09-24T02:35:27.852Z,1008.02
2022-09-24T02:36:27.844Z,1008.02
2022-09-24T02:37:27.847Z,1008.00
2022-09-24T02:38:27.844Z,1008.01
2022-09-24T02:39:27.841Z,1008.02
2022-09-24T02:40:27.889Z,1008.00
2022-09-24T02:41:27.839Z,1008.00
2022-09-24T02:42:27.843Z,1008.01
2022-09-24T02:43:33.826Z,1007.98
2022-09-24T02:44:28.252Z,1007.97
2022-09-24T02:45:27.834Z,1007.95
2022-09-24T02:46:27.899Z,1007.90
2022-09-24T02:47:27.827Z,1007.90
2022-09-24T02:48:27.831Z,1007.84
2022-09-24T02:49:27.831Z,1007.84
2022-09-24T02:50:27.823Z,1007.85
2022-09-24T02:51:27.828Z,1007.86
2022-09-24T02:52:27.819Z,1007.85
2022-09-24T02:53:27.820Z,1007.79
2022-09-24T02:54:27.818Z,1007.77
2022-09-24T02:55:27.816Z,1007.78
2022-09-24T02:56:27.813Z,1007.75
2022-09-24T02:57:27.811Z,1007.78
2022-09-24T02:58:27.807Z,1007.76
2022-09-24T02:59:27.804Z,1007.79
2022-09-24T03:00:27.912Z,1007.75
2022-09-24T03:01:27.857Z,1007.75
2022-09-24T03:02:27.924Z,1007.77
2022-09-24T03:03:27.799Z,1007.74
2022-09-24T03:04:27.800Z,1007.78
2022-09-24T03:05:27.804Z,1007.74
2022-09-24T03:06:27.796Z,1007.70
2022-09-24T03:07:27.798Z,1007.67
2022-09-24T03:08:27.792Z,1007.68
2022-09-24T03:09:27.790Z,1007.64
2022-09-24T03:10:27.793Z,1007.65
2022-09-24T03:11:27.786Z,1007.63
2022-09-24T03:12:27.783Z,1007.66
2022-09-24T03:13:27.787Z,1007.64
2022-09-24T03:14:27.780Z,1007.65
2022-09-24T03:15:27.779Z,1007.62
2022-09-24T03:16:27.910Z,1007.65
2022-09-24T03:17:27.780Z,1007.63
2022-09-24T03:18:27.777Z,1007.58
2022-09-24T03:19:27.781Z,1007.58
2022-09-24T03:20:27.768Z,1007.55
2022-09-24T03:21:27.771Z,1007.54
2022-09-24T03:22:27.772Z,1007.59
2022-09-24T03:23:27.767Z,1007.53
2022-09-24T03:24:27.763Z,1007.57
2022-09-24T03:25:27.776Z,1007.57
2022-09-24T03:26:27.759Z,1007.56
2022-09-24T03:27:27.760Z,1007.57
2022-09-24T03:28:27.759Z,1007.55
2022-09-24T03:29:27.756Z,1007.53
2022-09-24T03:30:27.756Z,1007.58
2022-09-24T03:31:27.850Z,1007.53
2022-09-24T03:32:27.786Z,1007.56
2022-09-24T03:33:27.751Z,1007.54
2022-09-24T03:34:27.748Z,1007.54
2022-09-24T03:35:27.749Z,1007.53
2022-09-24T03:36:27.743Z,1007.56
2022-09-24T03:37:27.749Z,1007.52
2022-09-24T03:38:27.746Z,1007.52
2022-09-24T03:39:27.741Z,1007.48
2022-09-24T03:40:27.808Z,1007.52
2022-09-24T03:41:27.821Z,1007.48
2022-09-24T03:42:27.737Z,1007.47
2022-09-24T03:43:27.737Z,1007.45
2022-09-24T03:44:27.735Z,1007.43
2022-09-24T03:45:27.732Z,1007.42
2022-09-24T03:46:27.805Z,1007.43
2022-09-24T03:47:27.727Z,1007.37
2022-09-24T03:48:27.743Z,1007.35
2022-09-24T03:49:27.727Z,1007.38
2022-09-24T03:50:27.733Z,1007.37
2022-09-24T03:51:27.730Z,1007.31
2022-09-24T03:52:27.716Z,1007.36
2022-09-24T03:53:27.718Z,1007.34
2022-09-24T03:54:27.718Z,1007.36
2022-09-24T03:55:27.713Z,1007.35
2022-09-24T03:56:27.711Z,1007.37
2022-09-24T03:57:27.711Z,1007.37
2022-09-24T03:58:27.716Z,1007.37
2022-09-24T03:59:27.723Z,1007.34
2022-09-24T04:00:27.706Z,1007.36
2022-09-24T04:01:27.760Z,1007.35
2022-09-24T04:02:27.769Z,1007.34
2022-09-24T04:03:27.702Z,1007.33
2022-09-24T04:04:27.715Z,1007.29
2022-09-24T04:05:27.699Z,1007.30
2022-09-24T04:06:27.698Z,1007.30
2022-09-24T04:07:27.694Z,1007.27
2022-09-24T04:08:27.689Z,1007.28
2022-09-24T04:09:27.692Z,1007.26
2022-09-24T04:10:27.687Z,1007.28
2022-09-24T04:11:27.690Z,1007.27
2022-09-24T04:12:27.682Z,1007.23
2022-09-24T04:13:27.683Z,1007.19
2022-09-24T04:14:27.684Z,1007.23
2022-09-24T04:15:27.684Z,1007.24
2022-09-24T04:16:27.747Z,1007.26
2022-09-24T04:17:27.674Z,1007.28
2022-09-24T04:18:27.674Z,1007.26
2022-09-24T04:19:27.671Z,1007.25
2022-09-24T04:20:27.688Z,1007.26
2022-09-24T04:21:27.666Z,1007.28
2022-09-24T04:22:27.674Z,1007.25
2022-09-24T04:23:27.661Z,1007.25
2022-09-24T04:24:27.662Z,1007.30
2022-09-24T04:25:27.662Z,1007.27
2022-09-24T04:26:27.656Z,1007.30
2022-09-24T04:27:27.660Z,1007.28
2022-09-24T04:28:27.653Z,1007.23
2022-09-24T04:29:27.656Z,1007.24
2022-09-24T04:30:27.662Z,1007.26
2022-09-24T04:31:27.777Z,1007.25
2022-09-24T04:32:27.649Z,1007.25
2022-09-24T04:33:27.646Z,1007.28
2022-09-24T04:34:27.642Z,1007.25
2022-09-24T04:35:27.645Z,1007.25
2022-09-24T04:36:27.658Z,1007.25
2022-09-24T04:37:27.637Z,1007.26
2022-09-24T04:38:27.634Z,1007.26
2022-09-24T04:39:27.636Z,1007.29
2022-09-24T04:40:27.714Z,1007.27
2022-09-24T04:41:27.633Z,1007.25
2022-09-24T04:42:27.630Z,1007.30
2022-09-24T04:43:27.626Z,1007.30
2022-09-24T04:44:27.623Z,1007.29
2022-09-24T04:45:27.622Z,1007.29
2022-09-24T04:46:27.689Z,1007.31
2022-09-24T04:47:27.628Z,1007.30
2022-09-24T04:48:27.627Z,1007.32
2022-09-24T04:49:27.821Z,1007.28
2022-09-24T04:50:27.617Z,1007.27
2022-09-24T04:51:27.612Z,1007.29
2022-09-24T04:52:27.663Z,1007.29
2022-09-24T04:53:27.610Z,1007.32
2022-09-24T04:54:27.608Z,1007.32
2022-09-24T04:55:27.605Z,1007.29
2022-09-24T04:56:27.601Z,1007.32
2022-09-24T04:57:27.603Z,1007.33
2022-09-24T04:58:27.604Z,1007.29
2022-09-24T04:59:27.620Z,1007.34
2022-09-24T05:00:27.601Z,1007.34
2022-09-24T05:01:27.648Z,1007.33
2022-09-24T05:02:27.694Z,1007.33
2022-09-24T05:03:27.594Z,1007.33
2022-09-24T05:04:27.588Z,1007.32
2022-09-24T05:05:27.590Z,1007.31
2022-09-24T05:06:27.585Z,1007.36
2022-09-24T05:07:27.589Z,1007.32
2022-09-24T05:08:27.597Z,1007.35
2022-09-24T05:09:27.581Z,1007.35
2022-09-24T05:10:27.580Z,1007.35
2022-09-24T05:11:27.577Z,1007.34
2022-09-24T05:12:27.572Z,1007.38
2022-09-24T05:13:27.571Z,1007.37
2022-09-24T05:14:27.570Z,1007.33
2022-09-24T05:15:27.570Z,1007.36
2022-09-24T05:16:27.641Z,1007.37
2022-09-24T05:17:27.568Z,1007.35
2022-09-24T05:18:27.565Z,1007.39
2022-09-24T05:19:27.562Z,1007.35
2022-09-24T05:20:27.562Z,1007.34
2022-09-24T05:21:27.559Z,1007.36
2022-09-24T05:22:27.562Z,1007.36
2022-09-24T05:23:27.554Z,1007.36
2022-09-24T05:24:27.568Z,1007.39
2022-09-24T05:25:27.563Z,1007.35
2022-09-24T05:26:27.554Z,1007.36
2022-09-24T05:27:27.547Z,1007.39
2022-09-24T05:28:27.544Z,1007.34
2022-09-24T05:29:27.541Z,1007.36
2022-09-24T05:30:27.543Z,1007.35
2022-09-24T05:31:27.622Z,1007.36
2022-09-24T05:32:27.535Z,1007.36
2022-09-24T05:33:27.536Z,1007.37
2022-09-24T05:34:27.533Z,1007.32
2022-09-24T05:35:27.529Z,1007.33
2022-09-24T05:36:27.525Z,1007.33
2022-09-24T05:37:27.528Z,1007.31
2022-09-24T05:38:27.526Z,1007.27
2022-09-24T05:39:32.802Z,1007.30
2022-09-24T05:40:27.615Z,1007.30
2022-09-24T05:41:27.521Z,1007.34
2022-09-24T05:42:27.517Z,1007.35
2022-09-24T05:43:27.517Z,1007.33
2022-09-24T05:44:27.514Z,1007.30
2022-09-24T05:45:27.515Z,1007.35
2022-09-24T05:46:27.576Z,1007.28
2022-09-24T05:47:27.511Z,1007.33
2022-09-24T05:48:27.506Z,1007.31
2022-09-24T05:49:27.532Z,1007.30
2022-09-24T05:50:27.659Z,1007.33
2022-09-24T05:51:27.524Z,1007.31
2022-09-24T05:52:27.501Z,1007.32
2022-09-24T05:53:27.499Z,1007.35
2022-09-24T05:54:27.502Z,1007.33
2022-09-24T05:55:32.070Z,1007.37
2022-09-24T05:56:27.512Z,1007.37
2022-09-24T05:57:27.497Z,1007.41
2022-09-24T05:58:27.496Z,1007.38
2022-09-24T05:59:27.490Z,1007.38
2022-09-24T06:00:27.505Z,1007.43
2022-09-24T06:01:27.544Z,1007.47
2022-09-24T06:02:27.485Z,1007.47
2022-09-24T06:03:27.503Z,1007.46
2022-09-24T06:04:27.480Z,1007.47
2022-09-24T06:05:27.478Z,1007.48
2022-09-24T06:06:27.479Z,1007.50
2022-09-24T06:07:27.474Z,1007.50
2022-09-24T06:08:27.481Z,1007.53
2022-09-24T06:09:27.470Z,1007.56
2022-09-24T06:10:27.589Z,1007.56
2022-09-24T06:11:27.468Z,1007.52
2022-09-24T06:12:27.487Z,1007.54
2022-09-24T06:13:27.463Z,1007.53
2022-09-24T06:14:27.464Z,1007.51
2022-09-24T06:15:27.569Z,1007.54
2022-09-24T06:16:27.560Z,1007.52
2022-09-24T06:17:27.459Z,1007.55
2022-09-24T06:18:27.459Z,1007.55
2022-09-24T06:19:27.454Z,1007.53
2022-09-24T06:20:27.533Z,1007.55
2022-09-24T06:21:27.451Z,1007.58
2022-09-24T06:22:28.728Z,1007.54
2022-09-24T06:23:27.444Z,1007.57
2022-09-24T06:24:27.445Z,1007.58
2022-09-24T06:25:27.443Z,1007.57
2022-09-24T06:26:27.442Z,1007.61
2022-09-24T06:27:27.437Z,1007.64
2022-09-24T06:28:27.456Z,1007.63
2022-09-24T06:29:27.438Z,1007.66
2022-09-24T06:30:27.434Z,1007.64
2022-09-24T06:31:27.497Z,1007.68
2022-09-24T06:32:27.437Z,1007.66
2022-09-24T06:33:27.430Z,1007.64
2022-09-24T06:34:27.431Z,1007.67
2022-09-24T06:35:27.425Z,1007.64
2022-09-24T06:36:27.427Z,1007.64
2022-09-24T06:37:27.421Z,1007.67
2022-09-24T06:38:27.424Z,1007.61
2022-09-24T06:39:27.417Z,1007.67
2022-09-24T06:40:29.408Z,1007.69
2022-09-24T06:41:27.415Z,1007.66
2022-09-24T06:42:27.413Z,1007.69
2022-09-24T06:43:27.414Z,1007.68
2022-09-24T06:44:27.516Z,1007.69
2022-09-24T06:45:27.409Z,1007.70
2022-09-24T06:46:27.474Z,1007.71
2022-09-24T06:47:27.406Z,1007.72
2022-09-24T06:48:27.407Z,1007.73
2022-09-24T06:49:32.979Z,1007.74
2022-09-24T06:50:27.401Z,1007.76
2022-09-24T06:51:27.596Z,1007.77
2022-09-24T06:52:27.397Z,1007.72
2022-09-24T06:53:27.393Z,1007.78
2022-09-24T06:54:27.394Z,1007.79
2022-09-24T06:55:27.390Z,1007.73
2022-09-24T06:56:27.389Z,1007.77
2022-09-24T06:57:29.101Z,1007.81
2022-09-24T06:58:27.391Z,1007.80
2022-09-24T06:59:27.387Z,1007.77
2022-09-24T07:00:27.405Z,1007.77
2022-09-24T07:01:27.478Z,1007.76
2022-09-24T07:02:27.494Z,1007.80
2022-09-24T07:03:27.375Z,1007.78
2022-09-24T07:04:27.378Z,1007.79
2022-09-24T07:05:27.373Z,1007.79
2022-09-24T07:06:27.374Z,1007.82
2022-09-24T07:07:27.368Z,1007.77
2022-09-24T07:08:27.371Z,1007.77
2022-09-24T07:09:27.367Z,1007.79
2022-09-24T07:10:27.370Z,1007.79
2022-09-24T07:11:27.364Z,1007.78
2022-09-24T07:12:27.364Z,1007.75
2022-09-24T07:13:27.362Z,1007.77
2022-09-24T07:14:27.361Z,1007.78
2022-09-24T07:15:27.356Z,1007.76
2022-09-24T07:16:27.453Z,1007.80
2022-09-24T07:17:32.903Z,1007.76
2022-09-24T07:18:27.364Z,1007.80
2022-09-24T07:19:27.349Z,1007.79
2022-09-24T07:20:27.351Z,1007.81
2022-09-24T07:21:27.348Z,1007.78
2022-09-24T07:22:27.350Z,1007.85
2022-09-24T07:23:27.344Z,1007.85
2022-09-24T07:24:27.345Z,1007.87
2022-09-24T07:25:27.342Z,1007.86
2022-09-24T07:26:27.345Z,1007.84
2022-09-24T07:27:27.337Z,1007.87
2022-09-24T07:28:27.342Z,1007.85
2022-09-24T07:29:27.337Z,1007.87
2022-09-24T07:30:27.339Z,1007.84
2022-09-24T07:31:27.382Z,1007.88
2022-09-24T07:32:29.997Z,1007.88
2022-09-24T07:33:27.328Z,1007.87
2022-09-24T07:34:27.331Z,1007.89
2022-09-24T07:35:27.326Z,1007.92
2022-09-24T07:36:27.329Z,1007.93
2022-09-24T07:37:27.321Z,1007.94
2022-09-24T07:38:27.326Z,1007.93
2022-09-24T07:39:27.318Z,1007.93
2022-09-24T07:40:27.333Z,1007.98
2022-09-24T07:41:27.315Z,1007.97
2022-09-24T07:42:27.318Z,1007.97
2022-09-24T07:43:27.311Z,1007.99
2022-09-24T07:44:27.313Z,1008.01
2022-09-24T07:45:27.310Z,1008.05
2022-09-24T07:46:27.385Z,1007.99
2022-09-24T07:47:27.306Z,1008.01
2022-09-24T07:48:27.329Z,1007.97
2022-09-24T07:49:27.303Z,1008.02
2022-09-24T07:50:27.319Z,1008.00
2022-09-24T07:51:27.710Z,1008.04
2022-09-24T07:52:27.303Z,1008.01
2022-09-24T07:53:27.302Z,1008.04
2022-09-24T07:54:27.298Z,1008.00
2022-09-24T07:55:27.294Z,1008.02
2022-09-24T07:56:27.294Z,1008.00
2022-09-24T07:57:27.293Z,1008.00
2022-09-24T07:58:27.310Z,1008.01
2022-09-24T07:59:27.290Z,1008.04
2022-09-24T08:00:27.290Z,1008.02
2022-09-24T08:01:27.350Z,1008.01
2022-09-24T08:02:27.292Z,1008.05
2022-09-24T08:03:27.343Z,1008.05
2022-09-24T08:04:27.305Z,1007.98
2022-09-24T08:05:27.279Z,1008.01
2022-09-24T08:06:27.286Z,1008.00
2022-09-24T08:07:27.276Z,1008.04
2022-09-24T08:08:27.278Z,1008.05
2022-09-24T08:09:27.276Z,1008.01
2022-09-24T08:10:27.277Z,1008.02
2022-09-24T08:11:27.272Z,1008.05
2022-09-24T08:12:27.285Z,1008.08
2022-09-24T08:13:28.056Z,1008.08
2022-09-24T08:14:27.268Z,1008.12
2022-09-24T08:15:27.265Z,1008.13
2022-09-24T08:16:27.377Z,1008.12
2022-09-24T08:17:27.263Z,1008.15
2022-09-24T08:18:27.264Z,1008.12
2022-09-24T08:19:27.258Z,1008.13
2022-09-24T08:20:27.282Z,1008.16
2022-09-24T08:21:27.255Z,1008.13
2022-09-24T08:22:27.257Z,1008.14
2022-09-24T08:23:27.255Z,1008.14
2022-09-24T08:24:27.261Z,1008.10
2022-09-24T08:25:27.257Z,1008.14
2022-09-24T08:26:27.255Z,1008.08
2022-09-24T08:27:27.247Z,1008.08
2022-09-24T08:28:27.251Z,1008.10
2022-09-24T08:29:27.245Z,1008.09
2022-09-24T08:30:27.247Z,1008.13
2022-09-24T08:31:27.280Z,1008.05
2022-09-24T08:32:27.245Z,1008.06
2022-09-24T08:33:27.241Z,1008.08
2022-09-24T08:34:27.249Z,1008.06
2022-09-24T08:35:27.239Z,1008.08
2022-09-24T08:36:27.286Z,1008.09
2022-09-24T08:37:27.235Z,1008.10
2022-09-24T08:38:27.247Z,1008.08
2022-09-24T08:39:27.235Z,1008.11
2022-09-24T08:40:27.283Z,1008.09
2022-09-24T08:41:27.229Z,1008.07
2022-09-24T08:42:27.231Z,1008.09
2022-09-24T08:43:27.226Z,1008.07
2022-09-24T08:44:27.234Z,1008.10
2022-09-24T08:45:27.225Z,1008.10
2022-09-24T08:46:27.314Z,1008.09
2022-09-24T08:47:27.227Z,1008.09
2022-09-24T08:48:27.221Z,1008.12
2022-09-24T08:49:27.220Z,1008.11
2022-09-24T08:50:27.219Z,1008.12
2022-09-24T08:51:32.739Z,1008.10
2022-09-24T08:52:27.235Z,1008.15
2022-09-24T08:53:27.213Z,1008.15
2022-09-24T08:54:27.213Z,1008.12
2022-09-24T08:55:27.210Z,1008.15
2022-09-24T08:56:27.215Z,1008.13
2022-09-24T08:57:27.219Z,1008.19
2022-09-24T08:58:27.213Z,1008.18
2022-09-24T08:59:27.204Z,1008.17
2022-09-24T09:00:27.220Z,1008.20
2022-09-24T09:01:27.296Z,1008.20
2022-09-24T09:02:27.384Z,1008.20
2022-09-24T09:03:27.202Z,1008.22
2022-09-24T09:04:27.199Z,1008.15
2022-09-24T09:05:27.197Z,1008.16
2022-09-24T09:06:27.204Z,1008.13
2022-09-24T09:07:27.194Z,1008.13
2022-09-24T09:08:54.646Z,1008.16
2022-09-24T09:09:27.192Z,1008.19
2022-09-24T09:10:27.217Z,1008.15
2022-09-24T09:11:27.191Z,1008.15
2022-09-24T09:12:27.195Z,1008.16
2022-09-24T09:13:27.185Z,1008.19
2022-09-24T09:14:31.303Z,1008.11
2022-09-24T09:15:27.185Z,1008.15
2022-09-24T09:16:27.250Z,1008.11
2022-09-24T09:17:27.185Z,1008.11
2022-09-24T09:18:27.187Z,1008.13
2022-09-24T09:19:27.181Z,1008.14
2022-09-24T09:20:27.177Z,1008.17
2022-09-24T09:21:27.178Z,1008.12
2022-09-24T09:22:27.178Z,1008.13
2022-09-24T09:23:27.172Z,1008.10
2022-09-24T09:24:27.283Z,1008.16
2022-09-24T09:25:27.172Z,1008.15
2022-09-24T09:26:27.173Z,1008.14
2022-09-24T09:27:27.166Z,1008.14
2022-09-24T09:28:27.167Z,1008.16
2022-09-24T09:29:27.171Z,1008.14
2022-09-24T09:30:27.167Z,1008.17
2022-09-24T09:31:27.222Z,1008.18
2022-09-24T09:32:27.162Z,1008.21
2022-09-24T09:33:27.158Z,1008.22
2022-09-24T09:34:27.161Z,1008.21
2022-09-24T09:35:27.173Z,1008.21
2022-09-24T09:36:27.163Z,1008.22
2022-09-24T09:37:27.157Z,1008.22
2022-09-24T09:38:27.155Z,1008.22
2022-09-24T09:39:27.167Z,1008.22
2022-09-24T09:40:31.648Z,1008.21
2022-09-24T09:41:27.148Z,1008.20
2022-09-24T09:42:27.154Z,1008.20
2022-09-24T09:43:27.157Z,1008.21
2022-09-24T09:44:27.148Z,1008.18
2022-09-24T09:45:28.234Z,1008.17
2022-09-24T09:46:27.263Z,1008.20
2022-09-24T09:47:27.144Z,1008.20
2022-09-24T09:48:27.143Z,1008.14
2022-09-24T09:49:27.139Z,1008.16
2022-09-24T09:50:27.140Z,1008.14
2022-09-24T09:51:27.286Z,1008.11
2022-09-24T09:52:27.145Z,1008.16
2022-09-24T09:53:27.133Z,1008.13
2022-09-24T09:54:27.142Z,1008.15
2022-09-24T09:55:27.133Z,1008.13
2022-09-24T09:56:27.155Z,1008.12
2022-09-24T09:57:27.129Z,1008.14
2022-09-24T09:58:27.155Z,1008.12
2022-09-24T09:59:29.688Z,1008.08
2022-09-24T10:00:27.140Z,1008.10
2022-09-24T10:01:27.148Z,1008.08
2022-09-24T10:02:27.348Z,1008.12
2022-09-24T10:03:27.212Z,1008.06
2022-09-24T10:04:27.134Z,1008.09
2022-09-24T10:05:27.610Z,1008.06
2022-09-24T10:06:27.126Z,1008.08
2022-09-24T10:07:27.139Z,1008.07
2022-09-24T10:08:27.121Z,1008.06
2022-09-24T10:09:27.122Z,1008.08
2022-09-24T10:10:27.121Z,1008.08
2022-09-24T10:11:27.113Z,1008.06
2022-09-24T10:12:27.133Z,1008.08
2022-09-24T10:13:27.114Z,1008.10
2022-09-24T10:14:27.112Z,1008.07
2022-09-24T10:15:27.108Z,1008.10
2022-09-24T10:16:27.177Z,1008.11
2022-09-24T10:17:27.105Z,1008.12
2022-09-24T10:18:27.109Z,1008.07
2022-09-24T10:19:27.105Z,1008.05
2022-09-24T10:20:27.102Z,1008.10
2022-09-24T10:21:28.390Z,1008.10
2022-09-24T10:22:27.107Z,1008.12
2022-09-24T10:23:27.102Z,1008.08
2022-09-24T10:24:27.106Z,1008.07
2022-09-24T10:25:27.127Z,1008.10
2022-09-24T10:26:27.095Z,1008.06
2022-09-24T10:27:27.097Z,1008.10
2022-09-24T10:28:27.114Z,1008.05
2022-09-24T10:29:27.115Z,1008.08
2022-09-24T10:30:27.118Z,1008.09
2022-09-24T10:31:27.175Z,1008.09
2022-09-24T10:32:27.098Z,1008.07
2022-09-24T10:33:27.092Z,1008.12
2022-09-24T10:34:27.116Z,1008.13
2022-09-24T10:35:27.093Z,1008.11
2022-09-24T10:36:27.088Z,1008.11
2022-09-24T10:37:27.111Z,1008.10
2022-09-24T10:38:27.082Z,1008.14
2022-09-24T10:39:27.085Z,1008.15
2022-09-24T10:40:27.113Z,1008.15
2022-09-24T10:41:27.083Z,1008.12
2022-09-24T10:42:27.082Z,1008.18
2022-09-24T10:43:27.082Z,1008.15
2022-09-24T10:44:27.184Z,1008.16
2022-09-24T10:45:27.080Z,1008.18
2022-09-24T10:46:27.138Z,1008.13
2022-09-24T10:47:27.078Z,1008.15
2022-09-24T10:48:27.075Z,1008.13
2022-09-24T10:49:27.072Z,1008.14
2022-09-24T10:50:27.070Z,1008.14
2022-09-24T10:51:29.338Z,1008.15
2022-09-24T10:52:27.067Z,1008.14
2022-09-24T10:53:27.075Z,1008.16
2022-09-24T10:54:27.069Z,1008.16
2022-09-24T10:55:27.066Z,1008.14
2022-09-24T10:56:27.065Z,1008.15
2022-09-24T10:57:27.071Z,1008.13
2022-09-24T10:58:27.063Z,1008.17
2022-09-24T10:59:27.065Z,1008.22
2022-09-24T11:00:27.079Z,1008.17
2022-09-24T11:01:27.188Z,1008.16
2022-09-24T11:02:27.095Z,1008.17
2022-09-24T11:03:27.058Z,1008.14
2022-09-24T11:04:27.063Z,1008.15
2022-09-24T11:05:27.056Z,1008.15
2022-09-24T11:06:27.053Z,1008.15
2022-09-24T11:07:27.052Z,1008.13
2022-09-24T11:08:27.076Z,1008.13
2022-09-24T11:09:27.053Z,1008.06
2022-09-24T11:10:27.049Z,1008.10
2022-09-24T11:11:27.050Z,1008.10
2022-09-24T11:12:27.048Z,1008.11
2022-09-24T11:13:27.047Z,1008.09
2022-09-24T11:14:27.047Z,1008.14
2022-09-24T11:15:27.045Z,1008.03
2022-09-24T11:16:27.124Z,1008.05
2022-09-24T11:17:27.049Z,1008.07
2022-09-24T11:18:27.041Z,1008.11
2022-09-24T11:19:27.044Z,1008.05
2022-09-24T11:20:27.040Z,1008.06
2022-09-24T11:21:27.040Z,1008.06
2022-09-24T11:22:27.043Z,1008.04
2022-09-24T11:23:27.040Z,1008.05
2022-09-24T11:24:27.036Z,1008.03
2022-09-24T11:25:27.037Z,1008.03
2022-09-24T11:26:27.034Z,1008.03
2022-09-24T11:27:27.041Z,1008.06
2022-09-24T11:28:27.035Z,1008.10
2022-09-24T11:29:27.033Z,1008.08
2022-09-24T11:30:27.032Z,1008.08
2022-09-24T11:31:27.081Z,1008.05
2022-09-24T11:32:27.044Z,1008.10
2022-09-24T11:33:27.030Z,1008.12
2022-09-24T11:34:27.031Z,1008.09
2022-09-24T11:35:27.024Z,1008.06
2022-09-24T11:36:27.022Z,1008.10
2022-09-24T11:37:27.024Z,1008.07
2022-09-24T11:38:27.022Z,1008.06
2022-09-24T11:39:27.023Z,1008.04
2022-09-24T11:40:27.100Z,1008.02
2022-09-24T11:41:27.023Z,1008.07
2022-09-24T11:42:27.018Z,1008.02
2022-09-24T11:43:27.020Z,1008.05
2022-09-24T11:44:27.026Z,1008.05
2022-09-24T11:45:27.018Z,1008.03
2022-09-24T11:46:27.062Z,1008.01
2022-09-24T11:47:27.014Z,1007.98
2022-09-24T11:48:27.031Z,1008.00
2022-09-24T11:49:27.013Z,1007.97
2022-09-24T11:50:27.011Z,1007.95
2022-09-24T11:51:27.011Z,1007.97
2022-09-24T11:52:27.006Z,1007.99
2022-09-24T11:53:27.008Z,1007.98
2022-09-24T11:54:27.007Z,1007.98
2022-09-24T11:55:27.004Z,1007.97
2022-09-24T11:56:27.008Z,1008.00
2022-09-24T11:57:27.005Z,1007.96
2022-09-24T11:58:27.015Z,1007.94
2022-09-24T11:59:27.003Z,1007.94
2022-09-24T12:00:27.008Z,1007.93
2022-09-24T12:01:27.082Z,1007.90
2022-09-24T12:02:27.096Z,1007.90
2022-09-24T12:03:27.043Z,1007.85
2022-09-24T12:04:27.011Z,1007.89
2022-09-24T12:05:27.001Z,1007.87